Time;durP1;ratioP1;P1;durP2;ratioP2;P2;SDS_P1;SDS_P2;PMS_P1;PMS_P2;Temp;Humidity;BMP_temperature;BMP_pressure;BME280_temperature;BME280_humidity;BME280_pressure;Samples;Min_cycle;Max_cycle;Signal;HPM_P1;HPM_P2
2022/06/21 00:02:40;;;;;;;1.83;1.07;;;15.20;99.90;;;;;;5054766;28;20791;-76
2022/06/21 00:05:11;;;;;;;1.90;1.00;;;15.30;99.90;;;;;;5058599;28;20479;-75
2022/06/21 00:07:37;;;;;;;2.57;1.00;;;15.30;99.90;;;;;;5066356;28;20431;-75
2022/06/21 00:10:05;;;;;;;1.83;1.03;;;15.30;99.90;;;;;;5066621;28;20424;-71
2022/06/21 00:12:31;;;;;;;2.77;1.27;;;15.30;99.90;;;;;;5066435;28;20318;-75
2022/06/21 00:14:56;;;;;;;4.63;1.50;;;15.20;99.90;;;;;;5063590;28;21245;-76
2022/06/21 00:17:22;;;;;;;2.00;0.83;;;15.30;99.90;;;;;;5066248;28;20671;-76
2022/06/21 00:19:48;;;;;;;3.80;1.10;;;15.30;99.90;;;;;;5064566;28;20213;-76
2022/06/21 00:22:17;;;;;;;5.80;1.13;;;15.40;99.90;;;;;;5066132;28;20586;-76
2022/06/21 00:24:43;;;;;;;2.00;1.20;;;15.40;99.90;;;;;;5060198;28;20529;-75
2022/06/21 00:27:21;;;;;;;3.20;1.20;;;15.40;99.90;;;;;;5057255;28;20433;-75
2022/06/21 00:29:47;;;;;;;4.17;1.10;;;15.40;99.90;;;;;;5065860;28;20197;-75
2022/06/21 00:32:19;;;;;;;1.97;1.00;;;15.40;99.90;;;;;;5066257;28;20424;-75
2022/06/21 00:34:46;;;;;;;3.43;0.97;;;15.40;99.90;;;;;;5064286;28;20455;-74
2022/06/21 00:37:19;;;;;;;1.40;0.70;;;15.30;99.90;;;;;;5062579;28;21112;-75
2022/06/21 00:39:45;;;;;;;3.30;1.10;;;15.40;99.90;;;;;;5057867;28;20462;-76
2022/06/21 00:42:29;;;;;;;4.17;1.20;;;15.40;99.90;;;;;;5065752;28;20419;-76
2022/06/21 00:45:11;;;;;;;4.37;1.13;;;15.40;99.90;;;;;;5062298;28;20462;-76
2022/06/21 00:47:49;;;;;;;2.27;0.90;;;15.30;99.90;;;;;;5065485;28;21147;-75
2022/06/21 00:50:35;;;;;;;3.27;1.23;;;15.40;99.90;;;;;;5059222;28;20801;-75
2022/06/21 00:53:21;;;;;;;3.20;1.30;;;15.40;99.90;;;;;;5060654;28;20419;-76
2022/06/21 00:55:59;;;;;;;2.20;1.13;;;15.50;99.90;;;;;;5063267;28;20435;-77
2022/06/21 00:58:27;;;;;;;3.13;1.20;;;15.50;99.90;;;;;;5065932;28;20915;-75
2022/06/21 01:00:52;;;;;;;1.70;0.90;;;15.50;99.90;;;;;;5062914;28;20577;-75
2022/06/21 01:03:22;;;;;;;2.17;0.93;;;15.50;99.90;;;;;;5060032;28;20918;-75
2022/06/21 01:05:50;;;;;;;3.17;1.37;;;15.60;99.90;;;;;;5062830;28;20197;-77
2022/06/21 01:08:23;;;;;;;2.43;1.13;;;15.70;99.90;;;;;;5065844;28;20872;-78
2022/06/21 01:10:53;;;;;;;4.90;1.03;;;15.60;99.90;;;;;;5064588;28;20945;-75
2022/06/21 01:13:22;;;;;;;2.90;1.13;;;15.50;99.90;;;;;;5065384;28;20423;-75
2022/06/21 01:15:50;;;;;;;3.30;1.37;;;15.40;99.90;;;;;;5065133;28;20492;-77
2022/06/21 01:18:19;;;;;;;2.20;1.13;;;15.30;99.90;;;;;;5064066;28;20465;-75
2022/06/21 01:20:49;;;;;;;1.50;0.90;;;15.30;99.90;;;;;;5065336;28;20427;-75
2022/06/21 01:23:49;;;;;;;3.77;1.40;;;15.30;99.90;;;;;;5063439;28;20488;-76
2022/06/21 01:26:37;;;;;;;2.30;1.23;;;15.30;99.90;;;;;;5055275;28;20455;-76
2022/06/21 01:29:09;;;;;;;1.50;0.70;;;15.30;99.90;;;;;;5058086;28;20941;-76
2022/06/21 01:31:34;;;;;;;3.50;1.10;;;15.20;99.90;;;;;;5055129;28;20815;-76
2022/06/21 01:34:00;;;;;;;3.87;1.37;;;15.20;99.90;;;;;;5065553;28;20447;-75
2022/06/21 01:36:31;;;;;;;2.20;1.00;;;15.10;99.90;;;;;;5053547;28;20273;-71
2022/06/21 01:39:15;;;;;;;1.93;1.07;;;15.00;99.90;;;;;;5065572;28;20205;-77
2022/06/21 01:41:50;;;;;;;2.47;1.23;;;14.80;99.90;;;;;;5050439;28;20432;-75
2022/06/21 01:44:27;;;;;;;3.60;1.73;;;14.80;99.90;;;;;;5059869;28;20438;-75
2022/06/21 01:46:55;;;;;;;4.17;1.63;;;14.70;99.90;;;;;;5061602;28;20434;-77
2022/06/21 01:49:25;;;;;;;2.60;1.43;;;14.70;99.90;;;;;;5062867;28;20545;-75
2022/06/21 01:52:05;;;;;;;2.27;1.30;;;14.60;99.90;;;;;;5065284;28;20923;-77
2022/06/21 01:54:36;;;;;;;2.10;1.20;;;14.60;99.90;;;;;;5064590;28;20446;-77
2022/06/21 01:57:02;;;;;;;2.00;1.20;;;14.50;99.90;;;;;;5058724;28;20419;-76
2022/06/21 01:59:38;;;;;;;2.90;1.40;;;14.50;99.90;;;;;;5065222;28;20464;-76
2022/06/21 02:02:29;;;;;;;2.23;1.47;;;14.50;99.90;;;;;;5065441;28;20983;-73
2022/06/21 02:05:04;;;;;;;1.80;0.90;;;14.40;99.90;;;;;;5053594;28;20475;-75
2022/06/21 02:07:38;;;;;;;2.10;0.90;;;14.40;99.90;;;;;;5058352;28;20550;-77
2022/06/21 02:10:09;;;;;;;3.90;1.40;;;14.40;99.90;;;;;;5067563;28;20438;-78
2022/06/21 02:12:39;;;;;;;2.37;1.10;;;14.30;99.90;;;;;;5069164;28;20549;-76
2022/06/21 02:15:07;;;;;;;2.23;1.10;;;14.30;99.90;;;;;;5067994;28;20548;-75
2022/06/21 02:17:40;;;;;;;2.60;1.23;;;14.30;99.90;;;;;;5068610;28;20788;-75
2022/06/21 02:20:18;;;;;;;3.37;1.10;;;14.20;99.90;;;;;;5067167;28;21110;-77
2022/06/21 02:22:44;;;;;;;3.53;1.87;;;14.20;99.90;;;;;;5064045;28;20420;-76
2022/06/21 02:25:30;;;;;;;2.60;1.23;;;14.20;99.90;;;;;;5050858;28;20468;-76
2022/06/21 02:28:05;;;;;;;3.33;1.40;;;14.20;99.90;;;;;;5060012;28;20509;-76
2022/06/21 02:30:31;;;;;;;6.90;1.77;;;14.20;99.90;;;;;;5068612;28;20860;-75
2022/06/21 02:33:01;;;;;;;2.60;1.53;;;14.10;99.90;;;;;;5067623;28;21088;-75
2022/06/21 02:35:45;;;;;;;2.20;1.17;;;14.10;99.90;;;;;;5058284;28;20464;-78
2022/06/21 02:38:15;;;;;;;4.43;1.30;;;14.10;99.90;;;;;;5067422;28;20419;-73
2022/06/21 02:41:03;;;;;;;12.13;1.93;;;14.10;99.90;;;;;;5068198;28;20418;-77
2022/06/21 02:43:35;;;;;;;2.23;1.20;;;14.20;99.90;;;;;;5048323;28;20438;-77
2022/06/21 02:46:08;;;;;;;9.90;1.70;;;14.10;99.90;;;;;;5061942;28;20534;-77
2022/06/21 02:49:02;;;;;;;2.90;1.00;;;14.10;99.90;;;;;;5061508;28;20448;-75
2022/06/21 02:51:36;;;;;;;3.30;1.43;;;14.00;99.90;;;;;;5066940;28;20477;-73
2022/06/21 02:54:07;;;;;;;1.90;1.20;;;14.00;99.90;;;;;;5068356;28;20431;-77
2022/06/21 02:56:52;;;;;;;3.37;1.70;;;13.90;99.90;;;;;;5067850;28;20524;-76
2022/06/21 02:59:18;;;;;;;2.70;1.30;;;13.90;99.90;;;;;;5057707;28;20439;-75
2022/06/21 03:01:48;;;;;;;3.50;1.20;;;13.90;99.90;;;;;;5061364;28;20482;-75
2022/06/21 03:04:32;;;;;;;3.17;1.20;;;13.90;99.90;;;;;;5063536;28;20604;-75
2022/06/21 03:06:58;;;;;;;2.80;1.53;;;14.00;99.90;;;;;;5050034;28;20555;-74
2022/06/21 03:09:24;;;;;;;2.40;0.97;;;13.90;99.90;;;;;;5063274;28;20921;-75
2022/06/21 03:11:53;;;;;;;3.70;1.43;;;14.00;99.90;;;;;;5067920;28;20566;-77
2022/06/21 03:14:24;;;;;;;2.60;1.20;;;14.00;99.90;;;;;;5065899;28;20450;-75
2022/06/21 03:16:52;;;;;;;3.70;1.30;;;14.00;99.90;;;;;;5051047;28;20434;-76
2022/06/21 03:19:29;;;;;;;8.20;1.40;;;14.00;99.90;;;;;;5064640;28;20965;-75
2022/06/21 03:21:55;;;;;;;2.13;0.90;;;14.00;99.90;;;;;;5059335;28;20431;-74
2022/06/21 03:24:24;;;;;;;3.00;1.63;;;14.00;99.90;;;;;;5065855;28;20505;-76
2022/06/21 03:27:00;;;;;;;2.43;1.23;;;13.90;99.90;;;;;;5058724;28;20439;-75
2022/06/21 03:29:28;;;;;;;6.23;1.13;;;13.90;99.90;;;;;;5062795;28;20428;-75
2022/06/21 03:31:54;;;;;;;2.03;1.13;;;13.90;99.90;;;;;;5067221;28;20538;-75
2022/06/21 03:34:22;;;;;;;1.50;0.90;;;13.80;99.90;;;;;;5059158;28;20443;-76
2022/06/21 03:36:50;;;;;;;3.00;1.20;;;13.80;99.90;;;;;;5059430;28;20467;-71
2022/06/21 03:41:42;;;;;;;2.83;1.80;;;13.90;99.90;;;;;;5067124;28;20423;-77
2022/06/21 03:42:09;;;;;;;2.10;1.33;;;13.90;99.90;;;;;;5064949;28;20412;-77
2022/06/21 03:44:42;;;;;;;2.27;1.23;;;14.00;99.90;;;;;;5066700;28;20435;-77
2022/06/21 03:47:27;;;;;;;5.10;1.60;;;14.10;99.90;;;;;;5063105;28;20426;-75
2022/06/21 03:49:57;;;;;;;2.23;1.10;;;14.20;99.90;;;;;;5064124;28;20442;-76
2022/06/21 03:52:45;;;;;;;3.73;1.67;;;14.20;99.90;;;;;;5067082;28;20534;-76
2022/06/21 03:55:36;;;;;;;3.43;1.23;;;14.30;99.90;;;;;;5066724;28;20958;-76
2022/06/21 03:58:21;;;;;;;3.37;1.80;;;14.30;99.90;;;;;;5063609;28;21112;-75
2022/06/21 04:01:01;;;;;;;2.30;1.10;;;14.30;99.90;;;;;;5066855;28;20430;-76
2022/06/21 04:03:48;;;;;;;2.43;1.03;;;14.40;99.90;;;;;;5063882;28;20506;-72
2022/06/21 04:06:41;;;;;;;3.00;1.50;;;14.40;99.90;;;;;;5058434;28;20469;-75
2022/06/21 04:09:33;;;;;;;3.03;1.50;;;14.50;99.90;;;;;;5059119;28;20750;-78
2022/06/21 04:12:11;;;;;;;3.60;1.43;;;14.60;99.90;;;;;;5058702;28;20415;-73
2022/06/21 04:14:47;;;;;;;2.27;0.97;;;14.60;99.90;;;;;;5065446;28;20550;-78
2022/06/21 04:17:23;;;;;;;6.73;1.50;;;14.70;99.90;;;;;;5063956;28;20432;-76
2022/06/21 04:20:18;;;;;;;1.97;0.90;;;14.70;99.90;;;;;;5063526;28;20486;-75
2022/06/21 04:23:22;;;;;;;3.60;1.40;;;14.70;99.90;;;;;;5056624;28;20436;-75
2022/06/21 04:26:14;;;;;;;2.73;1.03;;;14.70;99.90;;;;;;5049849;28;20478;-71
2022/06/21 04:28:43;;;;;;;2.43;1.27;;;14.60;99.90;;;;;;5064193;28;20514;-76
2022/06/21 04:31:29;;;;;;;7.23;1.43;;;14.60;99.90;;;;;;5064537;28;20477;-73
2022/06/21 04:34:15;;;;;;;3.10;0.97;;;14.60;99.90;;;;;;5061685;28;20447;-75
2022/06/21 04:36:48;;;;;;;2.33;1.00;;;14.40;99.90;;;;;;5059482;28;20486;-77
2022/06/21 04:39:37;;;;;;;2.17;0.87;;;14.50;99.90;;;;;;5066400;28;20967;-76
2022/06/21 04:42:14;;;;;;;2.67;1.20;;;14.40;99.90;;;;;;5060072;28;20422;-75
2022/06/21 04:44:46;;;;;;;4.23;1.03;;;14.50;99.90;;;;;;5066193;28;20559;-78
2022/06/21 04:47:19;;;;;;;2.37;0.93;;;14.60;99.90;;;;;;5064885;28;20505;-76
2022/06/21 04:49:47;;;;;;;2.87;1.00;;;14.60;99.90;;;;;;5066431;28;20569;-76
2022/06/21 04:52:31;;;;;;;3.33;1.23;;;14.60;99.90;;;;;;5062699;28;20427;-76
2022/06/21 04:54:58;;;;;;;3.43;1.40;;;14.50;99.90;;;;;;5064609;28;21034;-75
2022/06/21 04:57:27;;;;;;;2.80;1.10;;;14.60;99.90;;;;;;5061399;28;20442;-77
2022/06/21 05:00:05;;;;;;;2.30;0.77;;;14.80;99.90;;;;;;5066277;28;20918;-73
2022/06/21 05:02:36;;;;;;;1.80;1.10;;;14.90;99.90;;;;;;5064780;28;20476;-76
2022/06/21 05:05:36;;;;;;;1.63;0.77;;;15.00;99.90;;;;;;5061430;28;20494;-76
2022/06/21 05:08:05;;;;;;;3.30;1.20;;;15.00;99.90;;;;;;5036146;28;20451;-76
2022/06/21 05:10:34;;;;;;;3.77;1.70;;;15.10;99.90;;;;;;5063853;28;20489;-79
2022/06/21 05:13:03;;;;;;;2.47;0.90;;;15.10;99.90;;;;;;5065327;28;20427;-76
2022/06/21 05:15:35;;;;;;;2.83;1.17;;;15.10;99.90;;;;;;5066333;28;20961;-76
2022/06/21 05:18:21;;;;;;;2.97;1.73;;;15.10;99.90;;;;;;5065689;28;20436;-71
2022/06/21 05:20:57;;;;;;;3.20;0.90;;;15.20;99.90;;;;;;5062430;28;20469;-77
2022/06/21 05:23:23;;;;;;;2.67;1.10;;;15.20;99.90;;;;;;5062112;28;20466;-72
2022/06/21 05:25:50;;;;;;;6.43;1.20;;;15.20;99.90;;;;;;5062305;28;20481;-76
2022/06/21 05:28:39;;;;;;;1.83;1.00;;;15.30;99.90;;;;;;5066127;28;20779;-75
2022/06/21 05:31:35;;;;;;;4.07;1.63;;;15.20;99.90;;;;;;5063552;28;20427;-76
2022/06/21 05:34:16;;;;;;;1.77;1.00;;;15.10;99.90;;;;;;5063972;28;20463;-72
2022/06/21 05:37:09;;;;;;;2.67;1.47;;;15.30;99.90;;;;;;5064080;28;20438;-75
2022/06/21 05:39:42;;;;;;;4.53;1.40;;;15.30;99.90;;;;;;5051089;28;20454;-75
2022/06/21 05:42:13;;;;;;;2.80;1.50;;;15.00;99.90;;;;;;5069092;28;20427;-75
2022/06/21 05:44:47;;;;;;;3.03;1.40;;;15.10;99.90;;;;;;5051686;28;20456;-77
2022/06/21 05:47:15;;;;;;;2.23;1.43;;;15.10;99.90;;;;;;5058121;28;20439;-78
2022/06/21 05:49:41;;;;;;;2.13;0.80;;;15.10;99.90;;;;;;5064515;28;20496;-75
2022/06/21 05:52:13;;;;;;;2.57;1.70;;;15.10;99.90;;;;;;5067210;28;20548;-72
2022/06/21 05:54:46;;;;;;;4.77;1.07;;;15.20;99.90;;;;;;5069714;28;20844;-75
2022/06/21 05:57:18;;;;;;;3.33;1.60;;;15.30;99.90;;;;;;5065877;28;20424;-76
2022/06/21 05:59:44;;;;;;;6.43;1.47;;;15.40;99.90;;;;;;5059839;28;20514;-75
2022/06/21 06:02:19;;;;;;;3.40;1.33;;;15.50;99.90;;;;;;5067220;28;20522;-76
2022/06/21 06:04:58;;;;;;;4.23;1.40;;;15.60;99.90;;;;;;5067324;28;20216;-77
2022/06/21 06:07:37;;;;;;;2.33;1.00;;;15.60;99.90;;;;;;5059253;28;20488;-75
2022/06/21 06:10:05;;;;;;;4.40;1.77;;;15.70;99.90;;;;;;5066739;28;20443;-76
2022/06/21 06:12:43;;;;;;;2.30;1.13;;;15.70;99.90;;;;;;5064948;28;20411;-76
2022/06/21 06:15:22;;;;;;;1.57;0.87;;;15.90;99.90;;;;;;5068317;28;20996;-78
2022/06/21 06:18:15;;;;;;;2.70;1.10;;;16.00;99.90;;;;;;5056678;28;20466;-77
2022/06/21 06:21:18;;;;;;;4.20;1.20;;;16.10;99.90;;;;;;5061194;28;20442;-76
2022/06/21 06:24:10;;;;;;;1.40;0.70;;;16.30;99.90;;;;;;5063595;28;20454;-76
2022/06/21 06:26:41;;;;;;;2.37;1.20;;;16.50;99.90;;;;;;5036092;28;20464;-75
2022/06/21 06:29:16;;;;;;;4.03;1.57;;;16.60;99.90;;;;;;5058300;28;20500;-73
2022/06/21 06:32:04;;;;;;;2.50;1.30;;;16.60;99.90;;;;;;5055010;28;20436;-77
2022/06/21 06:34:35;;;;;;;2.73;1.30;;;16.80;99.90;;;;;;5063281;28;20451;-76
2022/06/21 06:37:13;;;;;;;2.93;1.40;;;16.90;99.90;;;;;;5067068;28;20407;-79
2022/06/21 06:39:38;;;;;;;5.30;1.20;;;16.90;99.90;;;;;;5059027;28;20429;-77
2022/06/21 06:42:15;;;;;;;4.80;1.60;;;17.00;98.60;;;;;;5064452;28;20522;-76
2022/06/21 06:44:50;;;;;;;3.70;1.20;;;17.10;99.10;;;;;;5063876;28;20284;-77
2022/06/21 06:47:30;;;;;;;6.10;1.87;;;17.30;98.30;;;;;;5063905;28;20430;-76
2022/06/21 06:50:10;;;;;;;3.03;1.33;;;17.40;98.80;;;;;;5065227;28;20899;-75
2022/06/21 06:52:41;;;;;;;2.63;1.07;;;17.50;98.00;;;;;;5063102;28;20422;-76
2022/06/21 06:55:14;;;;;;;5.97;1.47;;;17.70;97.60;;;;;;5064922;28;20862;-76
2022/06/21 06:57:43;;;;;;;1.40;0.70;;;17.80;97.80;;;;;;5055442;28;20443;-74
2022/06/21 07:00:18;;;;;;;2.20;1.30;;;17.90;96.80;;;;;;5055710;28;20436;-76
2022/06/21 07:03:03;;;;;;;3.70;1.47;;;18.00;97.60;;;;;;5053315;28;20419;-78
2022/06/21 07:05:51;;;;;;;2.93;1.43;;;18.00;96.50;;;;;;5061446;28;21077;-78
2022/06/21 07:08:37;;;;;;;2.30;1.13;;;18.20;96.80;;;;;;5061810;28;20553;-77
2022/06/21 07:11:10;;;;;;;2.27;1.20;;;18.50;97.10;;;;;;5063704;28;20470;-75
2022/06/21 07:13:37;;;;;;;3.20;1.20;;;18.80;96.40;;;;;;5055646;28;21234;-78
2022/06/21 07:16:09;;;;;;;3.00;1.23;;;18.80;95.80;;;;;;5050020;28;21009;-78
2022/06/21 07:18:45;;;;;;;2.13;1.10;;;19.00;96.50;;;;;;5049151;28;20471;-77
2022/06/21 07:21:11;;;;;;;2.30;1.17;;;19.00;95.70;;;;;;5053633;28;20826;-78
2022/06/21 07:23:36;;;;;;;3.90;1.13;;;18.90;94.70;;;;;;5055635;28;20459;-75
2022/06/21 07:26:31;;;;;;;6.33;1.57;;;18.90;94.90;;;;;;5056841;28;20300;-78
2022/06/21 07:29:23;;;;;;;3.00;1.40;;;18.90;94.20;;;;;;5055208;28;20182;-78
2022/06/21 07:31:55;;;;;;;3.50;1.53;;;18.90;95.00;;;;;;5037901;28;20428;-75
2022/06/21 07:34:34;;;;;;;5.00;1.70;;;18.80;94.80;;;;;;5055127;28;20593;-77
2022/06/21 07:37:05;;;;;;;2.80;1.60;;;19.00;95.40;;;;;;5054225;28;20520;-77
2022/06/21 07:39:46;;;;;;;2.20;1.23;;;19.40;95.80;;;;;;5058240;28;20410;-78
2022/06/21 07:42:20;;;;;;;2.20;1.30;;;19.70;94.50;;;;;;5063004;28;20431;-75
2022/06/21 07:44:49;;;;;;;5.90;1.60;;;20.10;94.20;;;;;;5047927;28;20424;-76
2022/06/21 07:47:37;;;;;;;2.30;1.30;;;20.10;93.40;;;;;;5049671;28;20509;-76
2022/06/21 07:50:21;;;;;;;2.13;1.20;;;20.00;93.10;;;;;;5054931;28;20435;-75
2022/06/21 07:52:59;;;;;;;10.57;2.10;;;19.70;94.40;;;;;;5064108;28;20505;-77
2022/06/21 07:55:40;;;;;;;3.50;1.50;;;19.60;95.50;;;;;;5060189;28;20452;-75
2022/06/21 07:58:30;;;;;;;6.03;2.00;;;19.60;96.20;;;;;;5058948;28;20594;-77
2022/06/21 08:06:55;;;;;;;3.27;1.47;;;21.00;94.40;;;;;;5056272;28;20472;-75
2022/06/21 08:09:30;;;;;;;13.37;1.40;;;21.00;94.10;;;;;;5045550;28;20428;-77
2022/06/21 08:12:00;;;;;;;3.30;1.60;;;21.00;94.60;;;;;;5046125;28;20193;-75
2022/06/21 08:14:29;;;;;;;2.30;1.30;;;21.00;95.10;;;;;;5052393;28;20427;-76
2022/06/21 08:17:16;;;;;;;2.63;1.50;;;20.90;94.30;;;;;;5046951;28;20965;-74
2022/06/21 08:20:00;;;;;;;2.70;1.50;;;21.20;93.70;;;;;;5053338;28;20943;-77
2022/06/21 08:22:29;;;;;;;2.33;1.17;;;20.60;94.20;;;;;;5046212;28;20456;-77
2022/06/21 08:25:01;;;;;;;3.00;1.10;;;20.90;94.60;;;;;;5059298;28;20475;-78
2022/06/21 08:27:57;;;;;;;2.37;1.33;;;21.00;93.50;;;;;;5044883;28;20416;-77
2022/06/21 08:30:34;;;;;;;3.27;1.30;;;20.80;93.20;;;;;;5053633;28;20502;-76
2022/06/21 08:33:09;;;;;;;2.87;1.43;;;20.40;93.70;;;;;;5054166;28;21214;-75
2022/06/21 08:35:54;;;;;;;2.90;1.40;;;20.50;93.00;;;;;;5050677;28;20443;-77
2022/06/21 08:38:22;;;;;;;3.00;1.40;;;20.30;92.10;;;;;;5047951;28;20480;-76
2022/06/21 08:44:43;;;;;;;6.80;1.60;;;20.20;93.00;;;;;;5054879;28;20814;-77
2022/06/21 08:47:39;;;;;;;2.83;1.80;;;20.60;92.60;;;;;;5061296;28;21058;-76
2022/06/21 08:50:13;;;;;;;14.00;1.43;;;20.70;91.80;;;;;;5056418;28;20435;-76
2022/06/21 08:53:02;;;;;;;2.27;0.90;;;20.70;91.80;;;;;;5057233;28;20925;-76
2022/06/21 08:55:46;;;;;;;3.70;1.33;;;20.70;92.90;;;;;;5050448;28;20455;-77
2022/06/21 08:58:26;;;;;;;4.40;2.10;;;20.80;91.80;;;;;;5046403;28;20845;-76
2022/06/21 09:01:11;;;;;;;3.57;1.90;;;20.70;92.40;;;;;;5052073;28;20414;-72
2022/06/21 09:03:42;;;;;;;3.20;1.30;;;20.60;93.00;;;;;;5054329;28;20423;-76
2022/06/21 09:06:41;;;;;;;2.80;1.50;;;20.50;91.80;;;;;;5061485;28;20992;-75
2022/06/21 09:09:10;;;;;;;4.80;1.43;;;20.40;92.40;;;;;;5063663;28;20398;-75
2022/06/21 09:12:03;;;;;;;2.80;1.37;;;20.80;92.90;;;;;;5053646;28;20410;-75
2022/06/21 09:14:47;;;;;;;4.63;1.63;;;21.30;92.40;;;;;;5055386;28;20946;-76
2022/06/21 09:17:31;;;;;;;5.27;1.50;;;22.30;91.00;;;;;;5061873;28;20409;-77
2022/06/21 09:20:18;;;;;;;5.10;1.37;;;23.20;89.30;;;;;;5065173;28;20435;-79
2022/06/21 09:22:44;;;;;;;5.83;1.47;;;24.20;84.10;;;;;;5065522;28;20437;-79
2022/06/21 09:25:32;;;;;;;2.63;1.43;;;24.40;81.90;;;;;;5057914;28;20462;-77
2022/06/21 09:28:10;;;;;;;3.53;1.40;;;24.70;80.80;;;;;;5066274;28;20177;-79
2022/06/21 09:30:45;;;;;;;2.70;1.60;;;24.40;84.10;;;;;;5062264;28;20180;-78
2022/06/21 09:33:30;;;;;;;6.10;1.40;;;24.20;83.60;;;;;;5059385;28;20267;-79
2022/06/21 09:36:08;;;;;;;6.20;1.10;;;24.30;82.60;;;;;;5061550;28;20253;-77
2022/06/21 09:39:04;;;;;;;3.33;1.55;;;24.30;82.00;;;;;;5061341;28;20172;-79
2022/06/21 09:41:38;;;;;;;2.22;1.33;;;24.40;81.80;;;;;;5057411;28;20211;-76
2022/06/21 09:44:21;;;;;;;3.67;1.40;;;24.60;81.90;;;;;;5057139;28;20196;-80
2022/06/21 09:47:25;;;;;;;2.72;1.27;;;24.60;80.70;;;;;;5055263;28;20192;-77
2022/06/21 09:50:04;;;;;;;3.53;1.30;;;24.50;79.90;;;;;;5044240;28;20214;-79
2022/06/21 09:52:48;;;;;;;4.35;1.88;;;24.30;81.20;;;;;;5063141;28;20263;-80
2022/06/21 09:55:40;;;;;;;2.75;1.33;;;24.50;80.40;;;;;;5060254;28;20216;-79
2022/06/21 09:58:15;;;;;;;4.25;1.67;;;24.00;82.90;;;;;;5056444;28;20272;-79
2022/06/21 10:01:01;;;;;;;3.72;1.60;;;24.40;80.10;;;;;;5063564;28;20234;-78
2022/06/21 10:03:42;;;;;;;2.60;1.33;;;24.50;82.10;;;;;;5063957;28;20284;-76
2022/06/21 10:06:19;;;;;;;3.40;1.17;;;24.60;82.70;;;;;;5060863;28;20219;-76
2022/06/21 10:08:53;;;;;;;2.60;1.20;;;25.00;80.50;;;;;;5054667;28;20267;-77
2022/06/21 10:11:40;;;;;;;3.58;1.63;;;25.00;80.50;;;;;;5072809;28;20178;-76
2022/06/21 10:14:33;;;;;;;3.72;1.75;;;25.00;82.20;;;;;;5063092;28;20331;-75
2022/06/21 10:17:25;;;;;;;3.60;2.15;;;25.10;82.50;;;;;;5070035;28;20199;-79
2022/06/21 10:20:25;;;;;;;3.35;1.58;;;25.00;80.60;;;;;;5048249;28;20173;-78
2022/06/21 10:23:14;;;;;;;4.55;1.50;;;25.30;79.30;;;;;;5056071;28;20189;-74
2022/06/21 10:26:17;;;;;;;6.13;2.10;;;24.70;82.50;;;;;;5058407;28;20204;-77
2022/06/21 10:29:08;;;;;;;5.50;2.20;;;25.10;80.10;;;;;;5058065;28;20195;-78
2022/06/21 10:32:00;;;;;;;3.57;1.30;;;24.70;81.20;;;;;;5074465;28;20178;-74
2022/06/21 10:34:35;;;;;;;2.73;1.70;;;24.90;79.50;;;;;;5053805;28;20545;-77
2022/06/21 10:37:24;;;;;;;3.40;1.70;;;24.50;80.90;;;;;;5059124;28;20437;-78
2022/06/21 10:40:09;;;;;;;2.87;1.63;;;24.50;81.50;;;;;;5058544;28;20805;-75
2022/06/21 10:42:49;;;;;;;5.20;1.70;;;23.90;81.90;;;;;;5051177;28;20897;-77
2022/06/21 10:45:39;;;;;;;4.53;1.60;;;23.50;84.50;;;;;;5057807;28;20473;-73
2022/06/21 10:48:23;;;;;;;2.87;1.53;;;23.60;85.60;;;;;;5057457;28;20445;-77
2022/06/21 10:51:14;;;;;;;3.27;1.53;;;23.80;84.50;;;;;;5057962;28;20461;-77
2022/06/21 10:54:05;;;;;;;7.53;1.77;;;23.80;84.10;;;;;;5042752;28;20444;-76
2022/06/21 11:02:48;;;;;;;3.30;1.40;;;23.90;84.40;;;;;;5049699;28;20456;-77
2022/06/21 11:05:38;;;;;;;4.47;1.90;;;24.20;84.60;;;;;;5050375;28;20525;-76
2022/06/21 11:08:22;;;;;;;4.43;1.60;;;24.30;84.00;;;;;;5051755;28;20407;-77
2022/06/21 11:10:54;;;;;;;5.07;2.47;;;24.70;82.50;;;;;;5052578;28;20939;-75
2022/06/21 11:13:25;;;;;;;5.10;1.70;;;24.30;85.60;;;;;;5048890;28;20470;-78
2022/06/21 11:16:12;;;;;;;4.70;1.73;;;24.10;84.60;;;;;;5061024;28;20431;-77
2022/06/21 11:19:06;;;;;;;4.33;1.60;;;23.90;85.10;;;;;;5058084;28;20597;-76
2022/06/21 11:21:51;;;;;;;2.53;1.20;;;23.90;85.20;;;;;;5049454;28;20427;-73
2022/06/21 11:24:36;;;;;;;3.57;2.13;;;23.90;86.20;;;;;;5054906;28;20528;-73
2022/06/21 11:27:15;;;;;;;1.90;1.20;;;24.10;85.90;;;;;;5063680;28;20531;-76
2022/06/21 11:29:45;;;;;;;1.77;1.10;;;24.30;85.70;;;;;;5053205;28;21008;-77
2022/06/21 11:32:20;;;;;;;2.53;1.50;;;24.70;84.70;;;;;;5059332;28;20426;-76
2022/06/21 11:35:22;;;;;;;5.70;1.50;;;25.20;84.90;;;;;;5060551;28;20501;-77
2022/06/21 11:38:11;;;;;;;5.00;1.30;;;25.30;83.50;;;;;;5065818;28;20423;-77
2022/06/21 11:40:49;;;;;;;3.87;1.40;;;24.90;83.80;;;;;;5055529;28;20414;-76
2022/06/21 11:43:34;;;;;;;3.30;1.63;;;24.80;86.10;;;;;;5057092;28;20403;-77
2022/06/21 11:46:08;;;;;;;4.60;2.10;;;24.90;87.00;;;;;;5052631;28;20466;-77
2022/06/21 11:48:51;;;;;;;3.30;1.83;;;24.80;84.70;;;;;;5050604;28;20447;-77
2022/06/21 11:51:40;;;;;;;6.30;1.87;;;24.90;85.80;;;;;;5057343;28;20415;-72
2022/06/21 11:54:23;;;;;;;3.93;1.57;;;24.60;84.70;;;;;;5054428;28;20437;-77
2022/06/21 11:57:18;;;;;;;3.37;1.80;;;24.60;86.10;;;;;;5057950;28;20557;-73
2022/06/21 12:00:08;;;;;;;3.43;2.00;;;24.40;86.60;;;;;;5059931;28;20432;-76
2022/06/21 12:02:45;;;;;;;2.93;1.30;;;24.50;86.10;;;;;;5045626;28;20415;-76
2022/06/21 12:05:33;;;;;;;3.53;1.50;;;25.00;86.40;;;;;;5053611;28;20502;-77
2022/06/21 12:08:16;;;;;;;5.87;2.60;;;25.40;86.50;;;;;;5054457;28;20424;-79
2022/06/21 12:11:15;;;;;;;4.57;1.80;;;25.40;82.90;;;;;;5052421;28;20441;-76
2022/06/21 12:13:55;;;;;;;4.53;1.50;;;25.60;84.10;;;;;;5045647;28;20447;-76
2022/06/21 12:16:28;;;;;;;5.37;2.10;;;25.80;85.10;;;;;;5055001;28;20497;-77
2022/06/21 12:18:58;;;;;;;2.40;1.30;;;26.30;83.10;;;;;;5046883;28;20416;-77
2022/06/21 12:21:29;;;;;;;9.00;1.97;;;26.20;83.80;;;;;;5047827;28;20911;-80
2022/06/21 12:23:58;;;;;;;4.20;1.80;;;26.00;83.40;;;;;;5048954;28;20452;-76
2022/06/21 12:26:26;;;;;;;2.40;1.57;;;25.70;82.80;;;;;;5048746;28;20517;-73
2022/06/21 12:28:57;;;;;;;4.87;2.03;;;25.70;84.50;;;;;;5047836;28;20473;-76
2022/06/21 12:31:40;;;;;;;6.60;1.93;;;25.40;84.50;;;;;;5062890;28;20407;-76
2022/06/21 12:34:10;;;;;;;3.63;1.57;;;25.00;85.50;;;;;;5058103;28;20999;-74
2022/06/21 12:36:42;;;;;;;2.03;1.27;;;24.70;86.10;;;;;;5060906;28;20431;-78
2022/06/21 12:39:28;;;;;;;4.30;2.37;;;24.50;87.40;;;;;;5061702;28;20442;-75
2022/06/21 12:42:06;;;;;;;3.43;1.80;;;24.40;87.60;;;;;;5053713;28;20422;-76
2022/06/21 12:44:34;;;;;;;3.30;1.47;;;24.40;88.50;;;;;;5056179;28;21277;-72
2022/06/21 12:47:27;;;;;;;3.27;1.93;;;24.60;87.10;;;;;;5059396;28;20994;-79
2022/06/21 12:50:19;;;;;;;4.27;1.73;;;25.00;87.40;;;;;;5048431;28;20485;-74
2022/06/21 12:53:04;;;;;;;3.20;1.50;;;25.50;87.30;;;;;;5046529;28;20407;-76
2022/06/21 12:56:01;;;;;;;7.40;2.03;;;26.10;84.70;;;;;;5055533;28;20439;-75
2022/06/21 12:58:38;;;;;;;4.00;1.73;;;26.50;82.80;;;;;;5051316;28;20441;-75
2022/06/21 13:01:21;;;;;;;5.77;1.93;;;26.90;82.50;;;;;;5051374;28;21086;-78
2022/06/21 13:04:02;;;;;;;5.60;2.00;;;26.80;81.50;;;;;;5062945;28;20250;-73
2022/06/21 13:06:51;;;;;;;4.13;2.47;;;26.70;81.50;;;;;;5059522;28;20476;-76
2022/06/21 13:09:32;;;;;;;3.37;1.60;;;26.60;82.70;;;;;;5053264;28;20454;-73
2022/06/21 13:12:19;;;;;;;5.10;2.70;;;26.60;82.20;;;;;;5054146;28;20413;-76
2022/06/21 13:15:09;;;;;;;3.00;1.80;;;26.80;83.00;;;;;;5053252;28;20419;-76
2022/06/21 13:17:53;;;;;;;5.43;2.37;;;26.70;81.90;;;;;;5060645;28;20492;-75
2022/06/21 13:20:41;;;;;;;6.30;1.80;;;26.70;82.90;;;;;;5055612;28;20427;-76
2022/06/21 13:23:12;;;;;;;3.03;1.97;;;26.20;85.80;;;;;;5050525;28;20506;-77
2022/06/21 13:25:49;;;;;;;3.43;1.80;;;26.60;83.30;;;;;;5056120;28;21211;-78
2022/06/21 13:28:38;;;;;;;3.50;2.20;;;26.70;82.60;;;;;;5050339;28;20233;-76
2022/06/21 13:31:25;;;;;;;3.73;2.07;;;27.10;82.10;;;;;;5059346;28;20180;-76
2022/06/21 13:34:04;;;;;;;2.70;1.70;;;27.00;82.10;;;;;;5056087;28;20500;-77
2022/06/21 13:36:39;;;;;;;3.20;1.97;;;26.80;82.20;;;;;;5058559;28;20530;-77
2022/06/21 13:39:31;;;;;;;7.03;2.77;;;26.90;82.50;;;;;;5046163;28;20439;-76
2022/06/21 13:44:57;;;;;;;3.80;2.17;;;27.40;82.00;;;;;;5046382;28;20263;-79
2022/06/21 13:47:23;;;;;;;3.97;2.40;;;27.80;80.20;;;;;;5050849;28;20177;-79
2022/06/21 13:49:56;;;;;;;5.20;2.57;;;27.60;80.20;;;;;;5053280;28;20195;-77
2022/06/21 13:52:29;;;;;;;3.80;2.03;;;27.10;81.90;;;;;;5052673;28;20172;-77
2022/06/21 13:55:27;;;;;;;3.53;2.20;;;27.20;82.20;;;;;;5052157;28;20238;-77
2022/06/21 13:58:02;;;;;;;6.00;1.97;;;27.30;82.20;;;;;;5062947;28;20634;-76
2022/06/21 14:00:47;;;;;;;3.73;1.93;;;27.20;83.60;;;;;;5054088;28;20202;-77
2022/06/21 14:03:19;;;;;;;4.97;2.60;;;26.90;84.50;;;;;;5052380;28;20267;-77